Ana Sayfa
METAR-TAF:

METAR-TAF

Havaalanları :

Ponta Delgada, Azor Adaları, Portekiz

Enlem: 37-44N, Boylam: 025-42W, yükseklik: 71 m

Güncel hava durumu gözlemi

Rapor saat 22:00 UTC de 48 dakika önce yapıldı.
Rüzgar kuzeydoğudan 11 kt, kuzey ve doğu/kuzeydoğu arasında değişken
Sıcaklık 16°C
Nem 82%
Basınç 1029 hPa
Görüş mesafesi 10 km veya daha fazla
1300 ft yükseklikte az bulutlu
1800 ft yükseklikte parçalı çok bulutlu

METAR: LPPD 202200Z 04011KT 360V070 9999 FEW013 BKN018 16/13 Q1029

Saat: 22:48 (22:48 UTC)

Tahmin

Rapor saat 17:00 UTC de 5 saat ve 48 dakika önce yapıldı.
Ayın 20'si saat 18 UTC'den ayın 21'si saat 18 UTC'ye kadar geçerli Tahmin
Rüzgar kuzey/kuzeydoğudan 13 kt
Görüş mesafesi 10 km veya daha fazla
1500 ft yükseklikte az bulutlu
3000 ft yükseklikte parçalı bulutlu
Geçici
ayın 20'si saat 18 UTC'den ayın 21'si saat 18 UTC'ye kadar
2000 ft yükseklikte parçalı bulutlu

TAF: LPPD 201700Z 2018/2118 03013KT 9999 FEW015 SCT030 TEMPO 2018/2118 SCT020

4.000'den fazla havaalanı için hava durumu gözlemleri ve tahminleri (METAR ve TAF raporları).

Kullanılabilir istasyonlar harita üzerinde sarı ve kırmızı noktalarla gösterilir.

İstasyonun adını görmek için fareyi noktanın üzerinde gezdirin.

Sonrasında hava gözlem ve tahminlerini görmek için tıklayın.

Haritayı değiştirmek için: yaklaştırmak için siyah artı işaretli yeşil düğmeye ve uzaklaştırmak için de eksi işaretli düğmeye hızla tıklayın; bitişik haritalar için yeşil okları kullanın.


METAR-TAF: